createdAt,value
2017-11-24T00:00:00.676Z,8.76
2017-11-24T00:00:05.370Z,8.77
2017-11-24T00:00:09.557Z,8.76
2017-11-24T00:00:13.824Z,8.76
2017-11-24T00:00:18.098Z,8.77
2017-11-24T00:00:22.350Z,8.77
2017-11-24T00:00:26.614Z,8.76
2017-11-24T00:00:31.011Z,8.76
2017-11-24T00:00:35.313Z,8.77
2017-11-24T00:00:39.227Z,8.76
2017-11-24T00:00:43.488Z,8.76
2017-11-24T00:00:47.751Z,8.76
2017-11-24T00:00:51.896Z,8.76
2017-11-24T00:00:56.160Z,8.77
2017-11-24T00:01:00.409Z,8.76
2017-11-24T00:01:04.875Z,8.76
2017-11-24T00:01:09.256Z,8.75
2017-11-24T00:01:13.413Z,8.77
2017-11-24T00:01:17.670Z,8.77
2017-11-24T00:01:21.939Z,8.76
2017-11-24T00:01:26.101Z,8.76
2017-11-24T00:01:30.146Z,8.76
2017-11-24T00:01:34.396Z,8.76
2017-11-24T00:01:38.679Z,8.76
2017-11-24T00:01:42.830Z,8.76
2017-11-24T00:01:47.097Z,8.76
2017-11-24T00:01:51.277Z,8.76
2017-11-24T00:01:55.670Z,8.76
2017-11-24T00:02:00.056Z,8.76
2017-11-24T00:02:04.478Z,8.76
2017-11-24T00:02:08.510Z,8.76
2017-11-24T00:02:12.777Z,8.76
2017-11-24T00:02:16.859Z,8.75
2017-11-24T00:02:21.128Z,8.76
2017-11-24T00:02:25.398Z,8.76
2017-11-24T00:02:29.769Z,8.76
2017-11-24T00:02:34.146Z,8.76
2017-11-24T00:02:38.399Z,8.75
2017-11-24T00:02:42.780Z,8.76
2017-11-24T00:02:47.189Z,8.76
2017-11-24T00:02:51.560Z,8.75
2017-11-24T00:02:55.841Z,8.75
2017-11-24T00:03:00.005Z,8.75
2017-11-24T00:03:04.273Z,8.74
2017-11-24T00:03:08.676Z,8.75
2017-11-24T00:03:12.934Z,8.76
2017-11-24T00:03:17.090Z,8.75
2017-11-24T00:03:21.466Z,8.75
2017-11-24T00:03:25.612Z,8.74
2017-11-24T00:03:29.887Z,8.75
2017-11-24T00:03:34.166Z,8.74
2017-11-24T00:03:38.560Z,8.75
2017-11-24T00:03:42.827Z,8.74
2017-11-24T00:03:47.201Z,8.75
2017-11-24T00:03:51.575Z,8.74
2017-11-24T00:03:55.865Z,8.74
2017-11-24T00:04:00.252Z,8.75
2017-11-24T00:04:04.508Z,8.74
2017-11-24T00:04:08.805Z,8.74
2017-11-24T00:04:13.202Z,8.74
2017-11-24T00:04:17.565Z,8.74
2017-11-24T00:04:21.956Z,8.74
2017-11-24T00:04:26.107Z,8.74
2017-11-24T00:04:30.474Z,8.74
2017-11-24T00:04:34.634Z,8.74
2017-11-24T00:04:38.940Z,8.74
2017-11-24T00:04:43.317Z,8.75
2017-11-24T00:04:47.583Z,8.74
2017-11-24T00:04:51.970Z,8.75
2017-11-24T00:04:56.120Z,8.74
2017-11-24T00:05:00.513Z,8.74
2017-11-24T00:05:04.674Z,8.74
2017-11-24T00:05:09.055Z,8.75
2017-11-24T00:05:13.319Z,8.73
2017-11-24T00:05:17.701Z,8.74
2017-11-24T00:05:22.070Z,8.74
2017-11-24T00:05:26.340Z,8.74
2017-11-24T00:05:30.492Z,8.74
2017-11-24T00:05:34.758Z,8.73
2017-11-24T00:05:39.053Z,8.74
2017-11-24T00:05:43.217Z,8.74
2017-11-24T00:05:47.611Z,8.73
2017-11-24T00:05:51.899Z,8.74
2017-11-24T00:05:56.098Z,8.73
2017-11-24T00:06:00.472Z,8.74
2017-11-24T00:06:05.227Z,8.74
2017-11-24T00:06:09.478Z,8.73
2017-11-24T00:06:13.526Z,8.74
2017-11-24T00:06:17.676Z,8.74
2017-11-24T00:06:22.045Z,8.74
2017-11-24T00:06:26.310Z,8.74
2017-11-24T00:06:30.466Z,8.74
2017-11-24T00:06:34.841Z,8.74
2017-11-24T00:06:39.120Z,8.73
2017-11-24T00:06:43.506Z,8.74
2017-11-24T00:06:47.957Z,8.74
2017-11-24T00:06:52.212Z,8.73
2017-11-24T00:06:56.374Z,8.73
2017-11-24T00:07:00.738Z,8.74
2017-11-24T00:07:05.416Z,8.73
2017-11-24T00:07:09.662Z,8.73
2017-11-24T00:07:13.920Z,8.73
2017-11-24T00:07:18.193Z,8.73
2017-11-24T00:07:22.346Z,8.74
2017-11-24T00:07:26.604Z,8.73
2017-11-24T00:07:30.868Z,8.73
2017-11-24T00:07:35.036Z,8.73
2017-11-24T00:07:39.409Z,8.73
2017-11-24T00:07:43.680Z,8.73
2017-11-24T00:07:48.065Z,8.74
2017-11-24T00:07:52.430Z,8.73
2017-11-24T00:07:56.845Z,8.72
2017-11-24T00:08:01.094Z,8.74
2017-11-24T00:08:05.673Z,8.73
2017-11-24T00:08:09.952Z,8.73
2017-11-24T00:08:14.331Z,8.73
2017-11-24T00:08:18.593Z,8.73
2017-11-24T00:08:22.860Z,8.73
2017-11-24T00:08:27.114Z,8.73
2017-11-24T00:08:31.486Z,8.73
2017-11-24T00:08:35.863Z,8.73
2017-11-24T00:08:40.124Z,8.73
2017-11-24T00:08:44.516Z,8.73
2017-11-24T00:08:48.793Z,8.73
2017-11-24T00:08:53.051Z,8.73
2017-11-24T00:08:57.289Z,8.73
2017-11-24T00:09:01.740Z,8.73
2017-11-24T00:09:06.028Z,8.73
2017-11-24T00:09:10.403Z,8.72
2017-11-24T00:09:14.812Z,8.72
2017-11-24T00:09:19.185Z,8.73
2017-11-24T00:09:23.454Z,8.72
2017-11-24T00:09:27.721Z,8.72
2017-11-24T00:09:32.001Z,8.72
2017-11-24T00:09:36.277Z,8.71
2017-11-24T00:09:40.552Z,8.72
2017-11-24T00:09:44.918Z,8.72
2017-11-24T00:09:48.950Z,8.72
2017-11-24T00:09:53.109Z,8.72
2017-11-24T00:09:57.499Z,8.72
2017-11-24T00:10:01.875Z,8.71
2017-11-24T00:10:06.203Z,8.71
2017-11-24T00:10:10.369Z,8.72
2017-11-24T00:10:14.520Z,8.72
2017-11-24T00:10:18.905Z,8.72
2017-11-24T00:10:23.173Z,8.72
2017-11-24T00:10:27.547Z,8.71
2017-11-24T00:10:31.931Z,8.72
2017-11-24T00:10:35.998Z,8.72
2017-11-24T00:10:40.363Z,8.71
2017-11-24T00:10:44.745Z,8.72
2017-11-24T00:10:49.123Z,8.71
2017-11-24T00:10:53.388Z,8.71
2017-11-24T00:10:57.648Z,8.71
2017-11-24T00:11:02.044Z,8.71
2017-11-24T00:11:06.410Z,8.71
2017-11-24T00:11:10.451Z,8.72
2017-11-24T00:11:14.842Z,8.71
2017-11-24T00:11:18.984Z,8.71
2017-11-24T00:11:23.360Z,8.71
2017-11-24T00:11:27.761Z,8.71
2017-11-24T00:11:31.879Z,8.7
2017-11-24T00:11:36.268Z,8.72
2017-11-24T00:11:40.544Z,8.71
2017-11-24T00:11:44.966Z,8.71
2017-11-24T00:11:49.022Z,8.71
2017-11-24T00:11:53.387Z,8.72
2017-11-24T00:11:57.805Z,8.71
2017-11-24T00:12:02.249Z,8.71
2017-11-24T00:12:06.503Z,8.71
2017-11-24T00:12:10.753Z,8.71
2017-11-24T00:12:15.132Z,8.71
2017-11-24T00:12:19.394Z,8.7
2017-11-24T00:12:23.533Z,8.7
2017-11-24T00:12:27.791Z,8.71
2017-11-24T00:12:31.946Z,8.72
2017-11-24T00:12:36.008Z,8.71
2017-11-24T00:12:40.139Z,8.71
2017-11-24T00:12:44.512Z,8.71
2017-11-24T00:12:48.658Z,8.72
2017-11-24T00:12:52.826Z,8.72
2017-11-24T00:12:57.197Z,8.7
2017-11-24T00:13:01.581Z,8.7
2017-11-24T00:13:06.085Z,8.71
2017-11-24T00:13:10.348Z,8.71
2017-11-24T00:13:14.616Z,8.71
2017-11-24T00:13:18.870Z,8.71
2017-11-24T00:13:23.259Z,8.71
2017-11-24T00:13:27.645Z,8.7
2017-11-24T00:13:31.904Z,8.7
2017-11-24T00:13:36.168Z,8.7
2017-11-24T00:13:40.562Z,8.7
2017-11-24T00:13:44.716Z,8.7
2017-11-24T00:13:49.097Z,8.71
2017-11-24T00:13:53.365Z,8.71
2017-11-24T00:13:57.748Z,8.71
2017-11-24T00:14:02.169Z,8.7
2017-11-24T00:14:06.548Z,8.71
2017-11-24T00:14:10.823Z,8.71
2017-11-24T00:14:15.206Z,8.7
2017-11-24T00:14:19.472Z,8.7
2017-11-24T00:14:23.864Z,8.7
2017-11-24T00:14:28.123Z,8.7
2017-11-24T00:14:32.269Z,8.71
2017-11-24T00:14:36.665Z,8.7
2017-11-24T00:14:40.707Z,8.7
2017-11-24T00:14:44.989Z,8.7
2017-11-24T00:14:49.350Z,8.7
2017-11-24T00:14:53.384Z,8.7
2017-11-24T00:14:57.421Z,8.7
2017-11-24T00:15:01.574Z,8.7
2017-11-24T00:15:05.861Z,8.7
2017-11-24T00:15:10.156Z,8.71
2017-11-24T00:15:14.538Z,8.71
2017-11-24T00:15:18.812Z,8.7
2017-11-24T00:15:22.967Z,8.71
2017-11-24T00:15:27.238Z,8.7
2017-11-24T00:15:31.625Z,8.7
2017-11-24T00:15:35.926Z,8.7
2017-11-24T00:15:40.317Z,8.7
2017-11-24T00:15:44.720Z,8.71
2017-11-24T00:15:48.994Z,8.7
2017-11-24T00:15:53.151Z,8.7
2017-11-24T00:15:57.528Z,8.7
2017-11-24T00:16:01.767Z,8.71
2017-11-24T00:16:06.025Z,8.7
2017-11-24T00:16:10.202Z,8.71
2017-11-24T00:16:14.383Z,8.7
2017-11-24T00:16:18.760Z,8.7
2017-11-24T00:16:23.144Z,8.7
2017-11-24T00:16:27.403Z,8.7
2017-11-24T00:16:31.788Z,8.71
2017-11-24T00:16:36.172Z,8.7
2017-11-24T00:16:40.445Z,8.71
2017-11-24T00:16:44.604Z,8.69
2017-11-24T00:16:48.971Z,8.7
2017-11-24T00:16:53.235Z,8.69
2017-11-24T00:16:57.407Z,8.7
2017-11-24T00:17:01.541Z,8.7
2017-11-24T00:17:05.927Z,8.71
2017-11-24T00:17:10.192Z,8.7
2017-11-24T00:17:14.561Z,8.71
2017-11-24T00:17:18.932Z,8.7
2017-11-24T00:17:23.092Z,8.7
2017-11-24T00:17:27.234Z,8.7
2017-11-24T00:17:31.503Z,8.7
2017-11-24T00:17:35.888Z,8.7
2017-11-24T00:17:40.139Z,8.7
2017-11-24T00:17:44.183Z,8.7
2017-11-24T00:17:48.528Z,8.7
2017-11-24T00:17:52.755Z,8.71
2017-11-24T00:17:57.023Z,8.7
2017-11-24T00:18:01.299Z,8.7
2017-11-24T00:18:05.602Z,8.71
2017-11-24T00:18:09.773Z,8.7
2017-11-24T00:18:14.147Z,8.7
2017-11-24T00:18:18.518Z,8.7
2017-11-24T00:18:22.881Z,8.69
2017-11-24T00:18:27.264Z,8.7
2017-11-24T00:18:31.673Z,8.7
2017-11-24T00:18:36.083Z,8.7
2017-11-24T00:18:40.241Z,8.7
2017-11-24T00:18:44.596Z,8.7
2017-11-24T00:18:48.633Z,8.69
2017-11-24T00:18:52.898Z,8.7
2017-11-24T00:18:57.147Z,8.7
2017-11-24T00:19:01.299Z,8.69
2017-11-24T00:19:05.691Z,8.7
2017-11-24T00:19:09.958Z,8.69
2017-11-24T00:19:14.211Z,8.7
2017-11-24T00:19:18.628Z,8.69
2017-11-24T00:19:22.900Z,8.69
2017-11-24T00:19:27.168Z,8.69
2017-11-24T00:19:31.554Z,8.7
2017-11-24T00:19:35.820Z,8.69
2017-11-24T00:19:40.124Z,8.7
2017-11-24T00:19:44.169Z,8.69
2017-11-24T00:19:48.523Z,8.69
2017-11-24T00:19:52.900Z,8.69
2017-11-24T00:19:57.184Z,8.69
2017-11-24T00:20:01.222Z,8.69
2017-11-24T00:20:05.157Z,8.69
2017-11-24T00:20:09.529Z,8.69
2017-11-24T00:20:13.808Z,8.7
2017-11-24T00:20:18.179Z,8.7
2017-11-24T00:20:22.452Z,8.69
2017-11-24T00:20:26.723Z,8.7
2017-11-24T00:20:31.121Z,8.69
2017-11-24T00:20:35.492Z,8.69
2017-11-24T00:20:39.867Z,8.69
2017-11-24T00:20:43.781Z,8.7
2017-11-24T00:20:48.130Z,8.69
2017-11-24T00:20:52.404Z,8.69
2017-11-24T00:20:56.705Z,8.68
2017-11-24T00:21:00.870Z,8.69
2017-11-24T00:21:05.132Z,8.69
2017-11-24T00:21:09.520Z,8.7
2017-11-24T00:21:13.793Z,8.69
2017-11-24T00:21:18.066Z,8.69
2017-11-24T00:21:22.314Z,8.69
2017-11-24T00:21:26.681Z,8.69
2017-11-24T00:21:30.832Z,8.69
2017-11-24T00:21:35.224Z,8.68
2017-11-24T00:21:39.393Z,8.69
2017-11-24T00:21:43.662Z,8.68
2017-11-24T00:21:47.903Z,8.67
2017-11-24T00:21:52.288Z,8.68
2017-11-24T00:21:56.673Z,8.68
2017-11-24T00:22:00.977Z,8.68
2017-11-24T00:22:05.538Z,8.68
2017-11-24T00:22:09.917Z,8.67
2017-11-24T00:22:14.172Z,8.67
2017-11-24T00:22:18.314Z,8.67
2017-11-24T00:22:22.365Z,8.67
2017-11-24T00:22:26.619Z,8.67
2017-11-24T00:22:30.977Z,8.67
2017-11-24T00:22:35.126Z,8.67
2017-11-24T00:22:39.285Z,8.66
2017-11-24T00:22:43.565Z,8.67
2017-11-24T00:22:47.840Z,8.66
2017-11-24T00:22:52.272Z,8.67
2017-11-24T00:22:56.430Z,8.65
2017-11-24T00:23:00.688Z,8.67
2017-11-24T00:23:05.328Z,8.66
2017-11-24T00:23:09.475Z,8.65
2017-11-24T00:23:13.624Z,8.65
2017-11-24T00:23:17.891Z,8.65
2017-11-24T00:23:22.146Z,8.65
2017-11-24T00:23:26.283Z,8.65
2017-11-24T00:23:30.537Z,8.65
2017-11-24T00:23:34.926Z,8.65
2017-11-24T00:23:38.977Z,8.65
2017-11-24T00:23:43.336Z,8.64
2017-11-24T00:23:47.507Z,8.65
2017-11-24T00:23:51.891Z,8.64
2017-11-24T00:23:56.153Z,8.65
2017-11-24T00:24:00.546Z,8.64
2017-11-24T00:24:04.920Z,8.63
2017-11-24T00:24:09.278Z,8.63
2017-11-24T00:24:13.594Z,8.63
2017-11-24T00:24:17.627Z,8.63
2017-11-24T00:24:22.010Z,8.63
2017-11-24T00:24:26.265Z,8.64
2017-11-24T00:24:30.530Z,8.63
2017-11-24T00:24:34.778Z,8.63
2017-11-24T00:24:39.064Z,8.63
2017-11-24T00:24:43.434Z,8.63
2017-11-24T00:24:47.828Z,8.62
2017-11-24T00:24:52.223Z,8.62
2017-11-24T00:24:56.464Z,8.62
2017-11-24T00:25:00.823Z,8.62
2017-11-24T00:25:05.242Z,8.62
2017-11-24T00:25:09.510Z,8.61
2017-11-24T00:25:13.771Z,8.61
2017-11-24T00:25:18.171Z,8.61
2017-11-24T00:25:22.557Z,8.61
2017-11-24T00:25:26.799Z,8.61
2017-11-24T00:25:31.074Z,8.6
2017-11-24T00:25:35.331Z,8.61
2017-11-24T00:25:39.701Z,8.6
2017-11-24T00:26:16.106Z,8.58
2017-11-24T00:26:20.469Z,8.59
2017-11-24T00:26:24.726Z,8.58
2017-11-24T00:26:29.121Z,8.58
2017-11-24T00:26:33.279Z,8.58
2017-11-24T00:26:37.546Z,8.57
2017-11-24T00:26:41.808Z,8.57
2017-11-24T00:26:46.063Z,8.56
2017-11-24T00:26:50.335Z,8.57
2017-11-24T00:26:54.727Z,8.57
2017-11-24T00:26:59.136Z,8.56
2017-11-24T00:27:03.415Z,8.56
2017-11-24T00:27:07.579Z,8.56
2017-11-24T00:27:11.932Z,8.55
2017-11-24T00:27:16.208Z,8.56
2017-11-24T00:27:20.505Z,8.55
2017-11-24T00:27:24.753Z,8.56
2017-11-24T00:27:29.015Z,8.56
2017-11-24T00:27:33.295Z,8.55
2017-11-24T00:27:37.556Z,8.55
2017-11-24T00:27:41.913Z,8.55
2017-11-24T00:27:45.945Z,8.54
2017-11-24T00:27:50.357Z,8.54
2017-11-24T00:27:54.519Z,8.55
2017-11-24T00:27:58.793Z,8.54
2017-11-24T00:28:03.176Z,8.54
2017-11-24T00:28:07.204Z,8.53
2017-11-24T00:28:11.477Z,8.54
2017-11-24T00:28:15.518Z,8.53
2017-11-24T00:28:19.788Z,8.52
2017-11-24T00:28:24.173Z,8.52
2017-11-24T00:28:28.576Z,8.52
2017-11-24T00:28:32.937Z,8.53
2017-11-24T00:28:37.327Z,8.52
2017-11-24T00:28:41.594Z,8.52
2017-11-24T00:28:45.521Z,8.51
2017-11-24T00:28:49.897Z,8.52
2017-11-24T00:28:54.048Z,8.51
2017-11-24T00:28:58.437Z,8.51
2017-11-24T00:29:02.815Z,8.51
2017-11-24T00:29:07.094Z,8.5
2017-11-24T00:29:11.474Z,8.51
2017-11-24T00:29:15.624Z,8.51
2017-11-24T00:29:19.884Z,8.5
2017-11-24T00:29:24.025Z,8.51
2017-11-24T00:29:28.289Z,8.5
2017-11-24T00:29:32.697Z,8.49
2017-11-24T00:29:36.968Z,8.51
2017-11-24T00:29:41.335Z,8.5
2017-11-24T00:29:45.723Z,8.5
2017-11-24T00:29:49.979Z,8.5
2017-11-24T00:29:54.024Z,8.49
2017-11-24T00:29:58.285Z,8.5
2017-11-24T00:30:02.649Z,8.5
2017-11-24T00:30:06.805Z,8.49
2017-11-24T00:30:11.209Z,8.49
2017-11-24T00:30:15.590Z,8.49
2017-11-24T00:30:19.974Z,8.49
2017-11-24T00:30:24.133Z,8.49
2017-11-24T00:30:28.508Z,8.49
2017-11-24T00:30:32.766Z,8.49
2017-11-24T00:30:37.143Z,8.49
2017-11-24T00:30:41.443Z,8.49
2017-11-24T00:30:45.813Z,8.48
2017-11-24T00:30:50.193Z,8.48
2017-11-24T00:30:54.585Z,8.48
2017-11-24T00:30:58.847Z,8.48
2017-11-24T00:31:03.127Z,8.48
2017-11-24T00:31:07.514Z,8.48
2017-11-24T00:31:11.778Z,8.48
2017-11-24T00:31:16.053Z,8.48
2017-11-24T00:31:20.218Z,8.48
2017-11-24T00:31:24.586Z,8.47
2017-11-24T00:31:28.834Z,8.47
2017-11-24T00:31:33.101Z,8.46
2017-11-24T00:31:37.466Z,8.47
2017-11-24T00:31:41.594Z,8.48
2017-11-24T00:31:45.869Z,8.47
2017-11-24T00:31:50.146Z,8.47
2017-11-24T00:31:54.296Z,8.47
2017-11-24T00:31:58.667Z,8.47
2017-11-24T00:32:03.176Z,8.46
2017-11-24T00:32:07.461Z,8.46
2017-11-24T00:32:11.838Z,8.47
2017-11-24T00:32:16.219Z,8.45
2017-11-24T00:32:20.391Z,8.45
2017-11-24T00:32:24.652Z,8.45
2017-11-24T00:32:28.927Z,8.46
2017-11-24T00:32:33.310Z,8.45
2017-11-24T00:32:37.595Z,8.44
2017-11-24T00:32:41.971Z,8.45
2017-11-24T00:32:46.232Z,8.44
2017-11-24T00:32:50.600Z,8.44
2017-11-24T00:32:54.860Z,8.44
2017-11-24T00:32:59.163Z,8.44
2017-11-24T00:33:03.491Z,8.44
2017-11-24T00:33:07.793Z,8.44
2017-11-24T00:33:12.075Z,8.44
2017-11-24T00:33:16.462Z,8.44
2017-11-24T00:33:20.729Z,8.44
2017-11-24T00:33:24.996Z,8.43
2017-11-24T00:33:29.256Z,8.44
2017-11-24T00:33:33.680Z,8.44
2017-11-24T00:33:37.833Z,8.44
2017-11-24T00:33:42.192Z,8.44
2017-11-24T00:33:46.348Z,8.42
2017-11-24T00:33:50.725Z,8.44
2017-11-24T00:33:55.117Z,8.43
2017-11-24T00:33:59.278Z,8.43
2017-11-24T00:34:03.597Z,8.42
2017-11-24T00:34:07.869Z,8.43
2017-11-24T00:34:12.231Z,8.43
2017-11-24T00:34:16.488Z,8.43
2017-11-24T00:34:20.660Z,8.42
2017-11-24T00:34:24.810Z,8.42
2017-11-24T00:34:28.980Z,8.42
2017-11-24T00:34:33.231Z,8.42
2017-11-24T00:34:37.625Z,8.43
2017-11-24T00:34:42.101Z,8.42
2017-11-24T00:34:46.370Z,8.42
2017-11-24T00:34:50.642Z,8.42
2017-11-24T00:34:54.788Z,8.42
2017-11-24T00:34:58.945Z,8.42
2017-11-24T00:35:03.229Z,8.41
2017-11-24T00:35:07.385Z,8.42
2017-11-24T00:35:11.525Z,8.42
2017-11-24T00:35:15.918Z,8.42
2017-11-24T00:35:20.183Z,8.42
2017-11-24T00:35:24.443Z,8.41
2017-11-24T00:35:28.598Z,8.41
2017-11-24T00:35:32.866Z,8.41
2017-11-24T00:35:37.029Z,8.41
2017-11-24T00:35:41.302Z,8.42
2017-11-24T00:35:45.693Z,8.42
2017-11-24T00:35:50.059Z,8.42
2017-11-24T00:35:54.203Z,8.41
2017-11-24T00:35:58.361Z,8.42
2017-11-24T00:36:02.637Z,8.41
2017-11-24T00:36:06.903Z,8.41
2017-11-24T00:36:11.303Z,8.42
2017-11-24T00:36:15.672Z,8.42
2017-11-24T00:36:19.936Z,8.42
2017-11-24T00:36:24.207Z,8.42
2017-11-24T00:36:28.467Z,8.41
2017-11-24T00:36:32.853Z,8.41
2017-11-24T00:36:37.235Z,8.41
2017-11-24T00:36:41.493Z,8.42
2017-11-24T00:36:45.632Z,8.42
2017-11-24T00:36:50.018Z,8.42
2017-11-24T00:36:54.199Z,8.41
2017-11-24T00:36:58.570Z,8.42
2017-11-24T00:37:02.843Z,8.42
2017-11-24T00:37:07.110Z,8.42
2017-11-24T00:37:11.508Z,8.42
2017-11-24T00:37:15.880Z,8.42
2017-11-24T00:37:20.267Z,8.42
2017-11-24T00:37:24.448Z,8.42
2017-11-24T00:37:28.842Z,8.42
2017-11-24T00:37:33.108Z,8.42
2017-11-24T00:37:37.473Z,8.42
2017-11-24T00:37:41.619Z,8.42
2017-11-24T00:37:46.011Z,8.41
2017-11-24T00:37:50.390Z,8.42
2017-11-24T00:37:54.750Z,8.42
2017-11-24T00:37:59.145Z,8.42
2017-11-24T00:38:03.207Z,8.42
2017-11-24T00:38:07.474Z,8.42
2017-11-24T00:38:11.408Z,8.42
2017-11-24T00:38:15.696Z,8.43
2017-11-24T00:38:19.973Z,8.43
2017-11-24T00:38:24.360Z,8.42
2017-11-24T00:38:28.752Z,8.42
2017-11-24T00:38:33.005Z,8.42
2017-11-24T00:38:37.263Z,8.41
2017-11-24T00:38:41.420Z,8.41
2017-11-24T00:38:45.692Z,8.41
2017-11-24T00:38:50.074Z,8.42
2017-11-24T00:38:54.236Z,8.42
2017-11-24T00:38:58.485Z,8.42
2017-11-24T00:39:02.869Z,8.42
2017-11-24T00:39:07.240Z,8.41
2017-11-24T00:39:11.523Z,8.41
2017-11-24T00:39:15.788Z,8.42
2017-11-24T00:39:20.148Z,8.41
2017-11-24T00:39:24.322Z,8.41
2017-11-24T00:39:28.569Z,8.42
2017-11-24T00:39:32.957Z,8.41
2017-11-24T00:39:37.104Z,8.41
2017-11-24T00:39:41.374Z,8.41
2017-11-24T00:39:45.633Z,8.41
2017-11-24T00:39:49.893Z,8.41
2017-11-24T00:39:54.275Z,8.41
2017-11-24T00:39:58.421Z,8.4
2017-11-24T00:40:02.824Z,8.41
2017-11-24T00:40:06.878Z,8.41
2017-11-24T00:40:11.251Z,8.41
2017-11-24T00:40:15.639Z,8.41
2017-11-24T00:40:19.991Z,8.41
2017-11-24T00:40:24.390Z,8.41
2017-11-24T00:40:28.710Z,8.4
2017-11-24T00:40:32.856Z,8.41
2017-11-24T00:40:37.217Z,8.41
2017-11-24T00:40:41.609Z,8.39
2017-11-24T00:40:45.736Z,8.4
2017-11-24T00:40:49.877Z,8.41
2017-11-24T00:40:54.142Z,8.4
2017-11-24T00:40:58.334Z,8.4
2017-11-24T00:41:02.603Z,8.4
2017-11-24T00:41:06.896Z,8.39
2017-11-24T00:41:11.140Z,8.39
2017-11-24T00:41:15.526Z,8.39
2017-11-24T00:41:19.675Z,8.39
2017-11-24T00:41:24.082Z,8.39
2017-11-24T00:41:28.442Z,8.39
2017-11-24T00:41:32.591Z,8.39
2017-11-24T00:41:36.852Z,8.39
2017-11-24T00:41:41.100Z,8.39
2017-11-24T00:41:45.485Z,8.38
2017-11-24T00:41:49.746Z,8.38
2017-11-24T00:41:54.005Z,8.38
2017-11-24T00:41:58.369Z,8.38
2017-11-24T00:42:02.942Z,8.38
2017-11-24T00:42:06.886Z,8.38
2017-11-24T00:42:10.927Z,8.38
2017-11-24T00:42:15.197Z,8.38
2017-11-24T00:42:19.578Z,8.38
2017-11-24T00:42:23.958Z,8.38
2017-11-24T00:42:28.335Z,8.38
2017-11-24T00:42:32.699Z,8.38
2017-11-24T00:42:36.844Z,8.37
2017-11-24T00:42:41.111Z,8.37
2017-11-24T00:42:45.495Z,8.38
2017-11-24T00:42:49.879Z,8.37
2017-11-24T00:42:54.152Z,8.36
2017-11-24T00:42:58.533Z,8.37
2017-11-24T00:43:02.903Z,8.37
2017-11-24T00:43:07.273Z,8.37
2017-11-24T00:43:11.540Z,8.36
2017-11-24T00:43:15.925Z,8.36
2017-11-24T00:43:20.203Z,8.36
2017-11-24T00:43:24.479Z,8.36
2017-11-24T00:43:28.744Z,8.37
2017-11-24T00:43:33.012Z,8.36
2017-11-24T00:43:37.309Z,8.36
2017-11-24T00:43:41.718Z,8.35
2017-11-24T00:43:45.986Z,8.35
2017-11-24T00:43:50.159Z,8.35
2017-11-24T00:43:54.572Z,8.35
2017-11-24T00:43:58.949Z,8.35
2017-11-24T00:44:03.231Z,8.34
2017-11-24T00:44:07.619Z,8.34
2017-11-24T00:44:11.886Z,8.34
2017-11-24T00:44:16.267Z,8.34
2017-11-24T00:44:20.642Z,8.34
2017-11-24T00:44:25.002Z,8.34
2017-11-24T00:44:29.389Z,8.33
2017-11-24T00:44:33.662Z,8.33
2017-11-24T00:44:37.794Z,8.33
2017-11-24T00:44:42.172Z,8.32
2017-11-24T00:44:46.483Z,8.32
2017-11-24T00:44:50.849Z,8.32
2017-11-24T00:44:55.236Z,8.32
2017-11-24T00:44:59.629Z,8.32
2017-11-24T00:45:03.800Z,8.32
2017-11-24T00:45:08.193Z,8.31
2017-11-24T00:45:12.454Z,8.31
2017-11-24T00:45:16.712Z,8.31
2017-11-24T00:45:20.984Z,8.31
2017-11-24T00:45:25.360Z,8.3
2017-11-24T00:45:29.518Z,8.31
2017-11-24T00:45:33.783Z,8.3
2017-11-24T00:45:38.045Z,8.3
2017-11-24T00:45:42.405Z,8.29
2017-11-24T00:45:46.780Z,8.29
2017-11-24T00:45:51.155Z,8.3
2017-11-24T00:45:55.528Z,8.29
2017-11-24T00:45:59.815Z,8.28
2017-11-24T00:46:04.220Z,8.3
2017-11-24T00:46:08.493Z,8.29
2017-11-24T00:46:12.420Z,8.29
2017-11-24T00:46:16.460Z,8.28
2017-11-24T00:46:20.596Z,8.28
2017-11-24T00:46:24.998Z,8.28
2017-11-24T00:46:29.250Z,8.28
2017-11-24T00:46:33.392Z,8.27
2017-11-24T00:46:37.566Z,8.28
2017-11-24T00:46:41.831Z,8.27
2017-11-24T00:46:46.123Z,8.27
2017-11-24T00:46:50.497Z,8.27
2017-11-24T00:46:54.876Z,8.27
2017-11-24T00:46:59.247Z,8.26
2017-11-24T00:47:03.818Z,8.26
2017-11-24T00:47:08.097Z,8.26
2017-11-24T00:47:12.480Z,8.26
2017-11-24T00:47:16.847Z,8.25
2017-11-24T00:47:21.128Z,8.26
2017-11-24T00:47:25.380Z,8.26
2017-11-24T00:47:29.750Z,8.25
2017-11-24T00:47:34.003Z,8.25
2017-11-24T00:47:38.296Z,8.24
2017-11-24T00:47:42.440Z,8.25
2017-11-24T00:47:46.590Z,8.24
2017-11-24T00:47:50.963Z,8.24
2017-11-24T00:47:55.313Z,8.24
2017-11-24T00:47:59.574Z,8.23
2017-11-24T00:48:03.967Z,8.24
2017-11-24T00:48:08.240Z,8.23
2017-11-24T00:48:12.495Z,8.23
2017-11-24T00:48:16.891Z,8.22
2017-11-24T00:48:21.266Z,8.23
2017-11-24T00:48:25.408Z,8.23
2017-11-24T00:48:29.689Z,8.21
2017-11-24T00:48:33.936Z,8.21
2017-11-24T00:48:38.315Z,8.21
2017-11-24T00:48:42.574Z,8.21
2017-11-24T00:48:46.714Z,8.21
2017-11-24T00:48:51.102Z,8.21
2017-11-24T00:48:55.277Z,8.2
2017-11-24T00:48:59.654Z,8.2
2017-11-24T00:49:04.109Z,8.2
2017-11-24T00:49:08.374Z,8.2
2017-11-24T00:49:12.535Z,8.19
2017-11-24T00:49:16.690Z,8.19
2017-11-24T00:49:20.830Z,8.19
2017-11-24T00:49:25.193Z,8.19
2017-11-24T00:49:29.499Z,8.19
2017-11-24T00:49:33.667Z,8.19
2017-11-24T00:49:38.031Z,8.19
2017-11-24T00:49:42.393Z,8.19
2017-11-24T00:49:46.677Z,8.19
2017-11-24T00:49:50.934Z,8.18
2017-11-24T00:49:55.307Z,8.18
2017-11-24T00:49:59.589Z,8.18
2017-11-24T00:50:04.119Z,8.18
2017-11-24T00:50:08.267Z,8.18
2017-11-24T00:50:12.650Z,8.17
2017-11-24T00:50:16.900Z,8.18
2017-11-24T00:50:21.151Z,8.17
2017-11-24T00:50:25.307Z,8.17
2017-11-24T00:50:29.461Z,8.16
2017-11-24T00:50:33.827Z,8.16
2017-11-24T00:50:38.089Z,8.16
2017-11-24T00:50:42.282Z,8.16
2017-11-24T00:50:46.447Z,8.15
2017-11-24T00:50:50.824Z,8.14
2017-11-24T00:50:54.979Z,8.14
2017-11-24T00:50:59.255Z,8.15
2017-11-24T00:51:03.522Z,8.14
2017-11-24T00:51:07.793Z,8.14
2017-11-24T00:51:12.175Z,8.13
2017-11-24T00:51:16.557Z,8.14
2017-11-24T00:51:20.734Z,8.14
2017-11-24T00:51:24.998Z,8.13
2017-11-24T00:51:29.387Z,8.13
2017-11-24T00:51:33.768Z,8.13
2017-11-24T00:51:38.123Z,8.12
2017-11-24T00:51:42.491Z,8.13
2017-11-24T00:51:46.648Z,8.12
2017-11-24T00:51:51.030Z,8.12
2017-11-24T00:51:55.198Z,8.12
2017-11-24T00:51:59.381Z,8.12
2017-11-24T00:52:03.743Z,8.12
2017-11-24T00:52:08.010Z,8.12
2017-11-24T00:52:12.387Z,8.11
2017-11-24T00:52:16.645Z,8.11
2017-11-24T00:52:20.691Z,8.11
2017-11-24T00:52:25.041Z,8.11
2017-11-24T00:52:29.298Z,8.1
2017-11-24T00:52:33.687Z,8.11
2017-11-24T00:52:38.062Z,8.11
2017-11-24T00:52:42.324Z,8.1
2017-11-24T00:52:46.691Z,8.11
2017-11-24T00:52:50.952Z,8.1
2017-11-24T00:52:55.020Z,8.1
2017-11-24T00:52:59.403Z,8.1
2017-11-24T00:53:03.944Z,8.1
2017-11-24T00:53:08.191Z,8.1
2017-11-24T00:53:12.559Z,8.1
2017-11-24T00:53:16.961Z,8.1
2017-11-24T00:53:21.116Z,8.09
2017-11-24T00:53:25.260Z,8.1
2017-11-24T00:53:29.655Z,8.09
2017-11-24T00:53:34.048Z,8.09
2017-11-24T00:53:38.316Z,8.09
2017-11-24T00:53:42.607Z,8.1
2017-11-24T00:53:46.990Z,8.1
2017-11-24T00:53:51.242Z,8.09
2017-11-24T00:53:55.396Z,8.09
2017-11-24T00:53:59.762Z,8.08
2017-11-24T00:54:04.025Z,8.09
2017-11-24T00:54:08.179Z,8.09
2017-11-24T00:54:12.445Z,8.09
2017-11-24T00:54:16.816Z,8.09
2017-11-24T00:54:21.080Z,8.09
2017-11-24T00:54:25.245Z,8.09
2017-11-24T00:54:29.489Z,8.08
2017-11-24T00:54:33.855Z,8.08
2017-11-24T00:54:38.103Z,8.08
2017-11-24T00:54:42.501Z,8.09
2017-11-24T00:54:46.757Z,8.08
2017-11-24T00:54:50.807Z,8.08
2017-11-24T00:54:54.939Z,8.08
2017-11-24T00:54:59.199Z,8.09
2017-11-24T00:55:03.472Z,8.09
2017-11-24T00:55:07.737Z,8.09
2017-11-24T00:55:11.678Z,8.08
2017-11-24T00:55:15.954Z,8.09
2017-11-24T00:55:20.220Z,8.09
2017-11-24T00:55:24.474Z,8.08
2017-11-24T00:55:28.738Z,8.09
2017-11-24T00:55:32.999Z,8.08
2017-11-24T00:55:37.285Z,8.09
2017-11-24T00:55:41.332Z,8.08
2017-11-24T00:55:45.585Z,8.09
2017-11-24T00:55:49.842Z,8.08
2017-11-24T00:55:54.210Z,8.09
2017-11-24T00:55:58.484Z,8.09
2017-11-24T00:56:02.918Z,8.08
2017-11-24T00:56:07.206Z,8.09
2017-11-24T00:56:11.579Z,8.09
2017-11-24T00:56:15.824Z,8.09
2017-11-24T00:56:19.861Z,8.09
2017-11-24T00:56:24.034Z,8.09
2017-11-24T00:56:28.301Z,8.09
2017-11-24T00:56:32.558Z,8.08
2017-11-24T00:56:36.945Z,8.09
2017-11-24T00:56:41.213Z,8.09
2017-11-24T00:56:45.378Z,8.09
2017-11-24T00:56:49.762Z,8.09
2017-11-24T00:56:53.933Z,8.1
2017-11-24T00:56:58.304Z,8.09
2017-11-24T00:57:02.716Z,8.09
2017-11-24T00:57:06.871Z,8.09
2017-11-24T00:57:11.248Z,8.1
2017-11-24T00:57:15.521Z,8.09
2017-11-24T00:57:19.808Z,8.1
2017-11-24T00:57:24.068Z,8.1
2017-11-24T00:57:28.123Z,8.1
2017-11-24T00:57:32.389Z,8.1
2017-11-24T00:57:36.753Z,8.09
2017-11-24T00:57:41.128Z,8.1
2017-11-24T00:57:45.500Z,8.1
2017-11-24T00:57:49.872Z,8.1